Open Full Screen Window  High Contrast Mode
Wind Gusting 00 knots
08
September 30, 2014 5:53 PM EDT
Weather Information
Wind Direction
  020 °
Wind Speed
  08 kt (9 mph)
Wind Gust
  00 kt (0 mph)
Altimeter
29.91 in
Visibility
10 SM
Temperature
22° C
72° F
Dewpoint
15° C
59° F
Humidity
65%
1hr Rain Fall
00.00 in.
24hr Rain Fall
00.00 in.
Sky Condition
Broken @ 7,500 ft
Broken @ 6,500 ft
VFR

METAR KI69 302153Z AUTO 02008KT 10SM BKN065 BKN075 22/15 A2991 RMK AO1

*Background is not an actual portrayal of the airport.